sensor_id;sensor_type;location;lat;lon;timestamp;temperature;humidity
7411;DHT22;3747;48.628;9.058;2023-01-09T00:00:04;5.90;99.90
7411;DHT22;3747;48.628;9.058;2023-01-09T00:02:31;5.90;99.90
7411;DHT22;3747;48.628;9.058;2023-01-09T00:04:57;6.00;99.90
7411;DHT22;3747;48.628;9.058;2023-01-09T00:07:24;6.10;99.90
7411;DHT22;3747;48.628;9.058;2023-01-09T00:09:51;6.10;99.90
7411;DHT22;3747;48.628;9.058;2023-01-09T00:12:17;6.10;99.90
7411;DHT22;3747;48.628;9.058;2023-01-09T00:14:44;6.10;99.90
7411;DHT22;3747;48.628;9.058;2023-01-09T00:17:12;6.10;99.90
7411;DHT22;3747;48.628;9.058;2023-01-09T00:19:39;6.20;99.90
7411;DHT22;3747;48.628;9.058;2023-01-09T00:22:06;6.20;99.90
7411;DHT22;3747;48.628;9.058;2023-01-09T00:24:34;6.20;99.90
7411;DHT22;3747;48.628;9.058;2023-01-09T00:27:01;6.10;99.90
7411;DHT22;3747;48.628;9.058;2023-01-09T00:29:27;6.10;99.90
7411;DHT22;3747;48.628;9.058;2023-01-09T00:31:54;6.10;99.90
7411;DHT22;3747;48.628;9.058;2023-01-09T00:34:22;6.10;99.90
7411;DHT22;3747;48.628;9.058;2023-01-09T00:36:49;6.10;99.90
7411;DHT22;3747;48.628;9.058;2023-01-09T00:39:19;6.10;99.90
7411;DHT22;3747;48.628;9.058;2023-01-09T00:41:49;6.10;99.90
7411;DHT22;3747;48.628;9.058;2023-01-09T00:44:19;6.10;99.90
7411;DHT22;3747;48.628;9.058;2023-01-09T00:46:49;6.20;99.90
7411;DHT22;3747;48.628;9.058;2023-01-09T00:49:17;6.20;99.90
7411;DHT22;3747;48.628;9.058;2023-01-09T00:51:46;6.20;99.90
7411;DHT22;3747;48.628;9.058;2023-01-09T00:54:15;6.30;99.90
7411;DHT22;3747;48.628;9.058;2023-01-09T00:56:43;6.30;99.90
7411;DHT22;3747;48.628;9.058;2023-01-09T00:59:09;6.30;99.90
7411;DHT22;3747;48.628;9.058;2023-01-09T01:01:36;6.30;99.90
7411;DHT22;3747;48.628;9.058;2023-01-09T01:04:03;6.20;99.90
7411;DHT22;3747;48.628;9.058;2023-01-09T01:06:51;6.20;99.90
7411;DHT22;3747;48.628;9.058;2023-01-09T01:09:35;6.20;99.90
7411;DHT22;3747;48.628;9.058;2023-01-09T01:12:03;6.20;99.90
7411;DHT22;3747;48.628;9.058;2023-01-09T01:14:32;6.20;99.90
7411;DHT22;3747;48.628;9.058;2023-01-09T01:16:58;6.20;99.90
7411;DHT22;3747;48.628;9.058;2023-01-09T01:19:25;6.20;99.90
7411;DHT22;3747;48.628;9.058;2023-01-09T01:21:54;6.20;99.90
7411;DHT22;3747;48.628;9.058;2023-01-09T01:24:20;6.20;99.90
7411;DHT22;3747;48.628;9.058;2023-01-09T01:26:47;6.20;99.90
7411;DHT22;3747;48.628;9.058;2023-01-09T01:29:14;6.20;99.90
7411;DHT22;3747;48.628;9.058;2023-01-09T01:31:41;6.20;99.90
7411;DHT22;3747;48.628;9.058;2023-01-09T01:34:07;6.20;99.90
7411;DHT22;3747;48.628;9.058;2023-01-09T01:36:34;6.10;99.90
7411;DHT22;3747;48.628;9.058;2023-01-09T01:39:02;6.10;99.90
7411;DHT22;3747;48.628;9.058;2023-01-09T01:41:29;6.10;99.90
7411;DHT22;3747;48.628;9.058;2023-01-09T01:43:58;6.10;99.90
7411;DHT22;3747;48.628;9.058;2023-01-09T01:46:24;6.00;99.90
7411;DHT22;3747;48.628;9.058;2023-01-09T01:48:54;6.00;99.90
7411;DHT22;3747;48.628;9.058;2023-01-09T01:51:23;6.00;99.90
7411;DHT22;3747;48.628;9.058;2023-01-09T01:53:54;6.00;99.90
7411;DHT22;3747;48.628;9.058;2023-01-09T01:56:26;6.10;99.90
7411;DHT22;3747;48.628;9.058;2023-01-09T01:59:00;6.10;99.90
7411;DHT22;3747;48.628;9.058;2023-01-09T02:01:29;6.10;99.90
7411;DHT22;3747;48.628;9.058;2023-01-09T02:03:58;6.10;99.90
7411;DHT22;3747;48.628;9.058;2023-01-09T02:06:26;6.00;99.90
7411;DHT22;3747;48.628;9.058;2023-01-09T02:08:53;6.00;99.90
7411;DHT22;3747;48.628;9.058;2023-01-09T02:11:21;5.90;99.90
7411;DHT22;3747;48.628;9.058;2023-01-09T02:13:48;5.90;99.90
7411;DHT22;3747;48.628;9.058;2023-01-09T02:16:26;6.00;99.90
7411;DHT22;3747;48.628;9.058;2023-01-09T02:19:03;6.00;99.90
7411;DHT22;3747;48.628;9.058;2023-01-09T02:21:40;6.00;99.90
7411;DHT22;3747;48.628;9.058;2023-01-09T02:24:31;5.90;99.90
7411;DHT22;3747;48.628;9.058;2023-01-09T02:27:16;5.90;99.90
7411;DHT22;3747;48.628;9.058;2023-01-09T02:30:17;6.00;99.90
7411;DHT22;3747;48.628;9.058;2023-01-09T02:32:57;6.00;99.90
7411;DHT22;3747;48.628;9.058;2023-01-09T02:35:39;6.00;99.90
7411;DHT22;3747;48.628;9.058;2023-01-09T02:38:16;6.00;99.90
7411;DHT22;3747;48.628;9.058;2023-01-09T02:40:53;6.00;99.90
7411;DHT22;3747;48.628;9.058;2023-01-09T02:43:22;6.00;99.90
7411;DHT22;3747;48.628;9.058;2023-01-09T02:45:51;5.90;99.90
7411;DHT22;3747;48.628;9.058;2023-01-09T02:48:18;5.90;99.90
7411;DHT22;3747;48.628;9.058;2023-01-09T02:50:48;5.90;99.90
7411;DHT22;3747;48.628;9.058;2023-01-09T02:53:31;5.90;99.90
7411;DHT22;3747;48.628;9.058;2023-01-09T02:56:11;5.90;99.90
7411;DHT22;3747;48.628;9.058;2023-01-09T02:58:59;5.80;99.90
7411;DHT22;3747;48.628;9.058;2023-01-09T03:01:35;5.80;99.90
7411;DHT22;3747;48.628;9.058;2023-01-09T03:04:09;5.70;99.90
7411;DHT22;3747;48.628;9.058;2023-01-09T03:06:46;5.70;99.90
7411;DHT22;3747;48.628;9.058;2023-01-09T03:09:17;5.60;99.90
7411;DHT22;3747;48.628;9.058;2023-01-09T03:11:49;5.60;99.90
7411;DHT22;3747;48.628;9.058;2023-01-09T03:14:20;5.60;99.90
7411;DHT22;3747;48.628;9.058;2023-01-09T03:16:52;5.60;99.90
7411;DHT22;3747;48.628;9.058;2023-01-09T03:19:23;5.60;99.90
7411;DHT22;3747;48.628;9.058;2023-01-09T03:21:51;5.50;99.90
7411;DHT22;3747;48.628;9.058;2023-01-09T03:24:18;5.50;99.90
7411;DHT22;3747;48.628;9.058;2023-01-09T03:26:44;5.50;99.90
7411;DHT22;3747;48.628;9.058;2023-01-09T03:29:11;5.50;99.90
7411;DHT22;3747;48.628;9.058;2023-01-09T03:31:38;5.50;99.90
7411;DHT22;3747;48.628;9.058;2023-01-09T03:34:06;5.60;99.90
7411;DHT22;3747;48.628;9.058;2023-01-09T03:36:33;5.60;99.90
7411;DHT22;3747;48.628;9.058;2023-01-09T03:38:59;5.60;99.90
7411;DHT22;3747;48.628;9.058;2023-01-09T03:41:26;5.60;99.90
7411;DHT22;3747;48.628;9.058;2023-01-09T03:43:53;5.50;99.90
7411;DHT22;3747;48.628;9.058;2023-01-09T03:46:19;5.60;99.90
7411;DHT22;3747;48.628;9.058;2023-01-09T03:48:46;5.50;99.90
7411;DHT22;3747;48.628;9.058;2023-01-09T03:51:14;5.50;99.90
7411;DHT22;3747;48.628;9.058;2023-01-09T03:53:41;5.50;99.90
7411;DHT22;3747;48.628;9.058;2023-01-09T03:56:07;5.40;99.90
7411;DHT22;3747;48.628;9.058;2023-01-09T03:58:34;5.40;99.90
7411;DHT22;3747;48.628;9.058;2023-01-09T04:01:03;5.40;99.90
7411;DHT22;3747;48.628;9.058;2023-01-09T04:03:30;5.50;99.90
7411;DHT22;3747;48.628;9.058;2023-01-09T04:05:57;5.40;99.90
7411;DHT22;3747;48.628;9.058;2023-01-09T04:08:25;5.40;99.90
7411;DHT22;3747;48.628;9.058;2023-01-09T04:10:51;5.40;99.90
7411;DHT22;3747;48.628;9.058;2023-01-09T04:13:18;5.40;99.90
7411;DHT22;3747;48.628;9.058;2023-01-09T04:15:45;5.40;99.90
7411;DHT22;3747;48.628;9.058;2023-01-09T04:18:12;5.40;99.90
7411;DHT22;3747;48.628;9.058;2023-01-09T04:20:38;5.30;99.90
7411;DHT22;3747;48.628;9.058;2023-01-09T04:23:05;5.30;99.90
7411;DHT22;3747;48.628;9.058;2023-01-09T04:25:33;5.20;99.90
7411;DHT22;3747;48.628;9.058;2023-01-09T04:28:00;5.20;99.90
7411;DHT22;3747;48.628;9.058;2023-01-09T04:30:27;5.10;99.90
7411;DHT22;3747;48.628;9.058;2023-01-09T04:32:53;5.00;99.90
7411;DHT22;3747;48.628;9.058;2023-01-09T04:35:20;4.90;99.90
7411;DHT22;3747;48.628;9.058;2023-01-09T04:37:47;4.70;99.90
7411;DHT22;3747;48.628;9.058;2023-01-09T04:40:14;4.60;99.90
7411;DHT22;3747;48.628;9.058;2023-01-09T04:42:44;4.40;99.90
7411;DHT22;3747;48.628;9.058;2023-01-09T04:45:11;4.40;99.90
7411;DHT22;3747;48.628;9.058;2023-01-09T04:47:39;4.40;99.90
7411;DHT22;3747;48.628;9.058;2023-01-09T04:50:07;4.40;99.90
7411;DHT22;3747;48.628;9.058;2023-01-09T04:52:34;4.30;99.90
7411;DHT22;3747;48.628;9.058;2023-01-09T04:55:01;4.30;99.90
7411;DHT22;3747;48.628;9.058;2023-01-09T04:57:27;4.20;99.90
7411;DHT22;3747;48.628;9.058;2023-01-09T04:59:55;4.10;99.90
7411;DHT22;3747;48.628;9.058;2023-01-09T05:02:22;4.00;99.90
7411;DHT22;3747;48.628;9.058;2023-01-09T05:04:49;3.90;99.90
7411;DHT22;3747;48.628;9.058;2023-01-09T05:07:16;3.90;99.90
7411;DHT22;3747;48.628;9.058;2023-01-09T05:09:42;3.80;99.90
7411;DHT22;3747;48.628;9.058;2023-01-09T05:12:09;3.70;99.90
7411;DHT22;3747;48.628;9.058;2023-01-09T05:14:36;3.80;99.90
7411;DHT22;3747;48.628;9.058;2023-01-09T05:17:04;3.70;99.90
7411;DHT22;3747;48.628;9.058;2023-01-09T05:19:30;3.80;99.90
7411;DHT22;3747;48.628;9.058;2023-01-09T05:21:58;3.60;99.90
7411;DHT22;3747;48.628;9.058;2023-01-09T05:24:25;3.50;99.90
7411;DHT22;3747;48.628;9.058;2023-01-09T05:26:52;3.50;99.90
7411;DHT22;3747;48.628;9.058;2023-01-09T05:29:18;3.40;99.90
7411;DHT22;3747;48.628;9.058;2023-01-09T05:31:45;3.40;99.90
7411;DHT22;3747;48.628;9.058;2023-01-09T05:34:13;3.40;99.90
7411;DHT22;3747;48.628;9.058;2023-01-09T05:36:40;3.40;99.90
7411;DHT22;3747;48.628;9.058;2023-01-09T05:39:06;3.50;99.90
7411;DHT22;3747;48.628;9.058;2023-01-09T05:41:33;3.50;99.90
7411;DHT22;3747;48.628;9.058;2023-01-09T05:44:00;3.50;99.90
7411;DHT22;3747;48.628;9.058;2023-01-09T05:46:26;3.50;99.90
7411;DHT22;3747;48.628;9.058;2023-01-09T05:48:53;3.40;99.90
7411;DHT22;3747;48.628;9.058;2023-01-09T05:51:21;3.30;99.90
7411;DHT22;3747;48.628;9.058;2023-01-09T05:53:48;3.30;99.90
7411;DHT22;3747;48.628;9.058;2023-01-09T05:56:15;3.30;99.90
7411;DHT22;3747;48.628;9.058;2023-01-09T05:58:42;3.20;99.90
7411;DHT22;3747;48.628;9.058;2023-01-09T06:01:08;3.20;99.90
7411;DHT22;3747;48.628;9.058;2023-01-09T06:03:35;3.10;99.90
7411;DHT22;3747;48.628;9.058;2023-01-09T06:06:02;3.10;99.90
7411;DHT22;3747;48.628;9.058;2023-01-09T06:08:30;3.00;99.90
7411;DHT22;3747;48.628;9.058;2023-01-09T06:10:57;3.00;99.90
7411;DHT22;3747;48.628;9.058;2023-01-09T06:13:23;3.00;99.90
7411;DHT22;3747;48.628;9.058;2023-01-09T06:15:50;3.00;99.90
7411;DHT22;3747;48.628;9.058;2023-01-09T06:18:17;2.90;99.90
7411;DHT22;3747;48.628;9.058;2023-01-09T06:20:44;3.00;99.90
7411;DHT22;3747;48.628;9.058;2023-01-09T06:23:11;3.00;99.90
7411;DHT22;3747;48.628;9.058;2023-01-09T06:25:39;3.00;99.90
7411;DHT22;3747;48.628;9.058;2023-01-09T06:28:06;3.10;99.90
7411;DHT22;3747;48.628;9.058;2023-01-09T06:30:33;3.10;99.90
7411;DHT22;3747;48.628;9.058;2023-01-09T06:32:59;3.10;99.90
7411;DHT22;3747;48.628;9.058;2023-01-09T06:35:26;3.10;99.90
7411;DHT22;3747;48.628;9.058;2023-01-09T06:37:53;3.00;99.90
7411;DHT22;3747;48.628;9.058;2023-01-09T06:40:19;3.00;99.90
7411;DHT22;3747;48.628;9.058;2023-01-09T06:42:47;2.90;99.90
7411;DHT22;3747;48.628;9.058;2023-01-09T06:45:15;3.00;99.90
7411;DHT22;3747;48.628;9.058;2023-01-09T06:47:41;3.00;99.90
7411;DHT22;3747;48.628;9.058;2023-01-09T06:50:09;3.00;99.90
7411;DHT22;3747;48.628;9.058;2023-01-09T06:52:37;3.10;99.90
7411;DHT22;3747;48.628;9.058;2023-01-09T06:55:04;3.20;99.90
7411;DHT22;3747;48.628;9.058;2023-01-09T06:57:31;3.30;99.90
7411;DHT22;3747;48.628;9.058;2023-01-09T06:59:59;3.20;99.90
7411;DHT22;3747;48.628;9.058;2023-01-09T07:02:26;3.20;99.90
7411;DHT22;3747;48.628;9.058;2023-01-09T07:04:53;3.10;99.90
7411;DHT22;3747;48.628;9.058;2023-01-09T07:07:20;3.10;99.90
7411;DHT22;3747;48.628;9.058;2023-01-09T07:09:47;3.10;99.90
7411;DHT22;3747;48.628;9.058;2023-01-09T07:12:13;3.10;99.90
7411;DHT22;3747;48.628;9.058;2023-01-09T07:14:40;3.20;99.90
7411;DHT22;3747;48.628;9.058;2023-01-09T07:17:09;3.20;99.90
7411;DHT22;3747;48.628;9.058;2023-01-09T07:19:37;3.20;99.90
7411;DHT22;3747;48.628;9.058;2023-01-09T07:22:03;3.20;99.90
7411;DHT22;3747;48.628;9.058;2023-01-09T07:24:30;3.30;99.90
7411;DHT22;3747;48.628;9.058;2023-01-09T07:26:57;3.30;99.90
7411;DHT22;3747;48.628;9.058;2023-01-09T07:29:23;3.40;99.90
7411;DHT22;3747;48.628;9.058;2023-01-09T07:31:50;3.40;99.90
7411;DHT22;3747;48.628;9.058;2023-01-09T07:34:18;3.50;99.90
7411;DHT22;3747;48.628;9.058;2023-01-09T07:36:45;3.50;99.90
7411;DHT22;3747;48.628;9.058;2023-01-09T07:39:13;3.50;99.90
7411;DHT22;3747;48.628;9.058;2023-01-09T07:41:40;3.50;99.90
7411;DHT22;3747;48.628;9.058;2023-01-09T07:44:06;3.50;99.90
7411;DHT22;3747;48.628;9.058;2023-01-09T07:46:33;3.50;99.90
7411;DHT22;3747;48.628;9.058;2023-01-09T07:49:00;3.50;99.90
7411;DHT22;3747;48.628;9.058;2023-01-09T07:51:28;3.40;99.90
7411;DHT22;3747;48.628;9.058;2023-01-09T07:53:54;3.40;99.90
7411;DHT22;3747;48.628;9.058;2023-01-09T07:56:21;3.30;99.90
7411;DHT22;3747;48.628;9.058;2023-01-09T07:58:48;3.20;99.90
7411;DHT22;3747;48.628;9.058;2023-01-09T08:01:15;3.30;99.90
7411;DHT22;3747;48.628;9.058;2023-01-09T08:03:41;3.20;99.90
7411;DHT22;3747;48.628;9.058;2023-01-09T08:06:08;3.20;99.90
7411;DHT22;3747;48.628;9.058;2023-01-09T08:08:36;3.20;99.90
7411;DHT22;3747;48.628;9.058;2023-01-09T08:11:03;3.10;99.90
7411;DHT22;3747;48.628;9.058;2023-01-09T08:13:30;3.10;99.90
7411;DHT22;3747;48.628;9.058;2023-01-09T08:15:57;3.10;99.90
7411;DHT22;3747;48.628;9.058;2023-01-09T08:18:23;3.10;99.90
7411;DHT22;3747;48.628;9.058;2023-01-09T08:20:50;3.10;99.90
7411;DHT22;3747;48.628;9.058;2023-01-09T08:23:17;3.10;99.90
7411;DHT22;3747;48.628;9.058;2023-01-09T08:25:45;3.20;99.90
7411;DHT22;3747;48.628;9.058;2023-01-09T08:28:12;3.40;99.90
7411;DHT22;3747;48.628;9.058;2023-01-09T08:30:38;3.60;99.90
7411;DHT22;3747;48.628;9.058;2023-01-09T08:33:05;3.70;99.90
7411;DHT22;3747;48.628;9.058;2023-01-09T08:35:32;3.80;99.90
7411;DHT22;3747;48.628;9.058;2023-01-09T08:37:58;3.90;99.90
7411;DHT22;3747;48.628;9.058;2023-01-09T08:40:25;3.90;99.90
7411;DHT22;3747;48.628;9.058;2023-01-09T08:42:53;4.00;99.90
7411;DHT22;3747;48.628;9.058;2023-01-09T08:45:38;4.00;99.90
7411;DHT22;3747;48.628;9.058;2023-01-09T08:48:22;4.10;99.90
7411;DHT22;3747;48.628;9.058;2023-01-09T08:50:49;4.20;99.90
7411;DHT22;3747;48.628;9.058;2023-01-09T08:53:16;4.40;99.90
7411;DHT22;3747;48.628;9.058;2023-01-09T08:55:43;4.50;99.90
7411;DHT22;3747;48.628;9.058;2023-01-09T08:58:11;4.50;99.90
7411;DHT22;3747;48.628;9.058;2023-01-09T09:00:38;4.60;99.90
7411;DHT22;3747;48.628;9.058;2023-01-09T09:03:04;4.50;99.90
7411;DHT22;3747;48.628;9.058;2023-01-09T09:05:32;4.40;99.90
7411;DHT22;3747;48.628;9.058;2023-01-09T09:07:59;4.50;99.90
7411;DHT22;3747;48.628;9.058;2023-01-09T09:10:28;4.50;99.90
7411;DHT22;3747;48.628;9.058;2023-01-09T09:12:57;4.50;99.90
7411;DHT22;3747;48.628;9.058;2023-01-09T09:15:26;4.50;99.90
7411;DHT22;3747;48.628;9.058;2023-01-09T09:17:54;4.50;99.90
7411;DHT22;3747;48.628;9.058;2023-01-09T09:20:23;4.60;99.90
7411;DHT22;3747;48.628;9.058;2023-01-09T09:22:50;4.70;99.90
7411;DHT22;3747;48.628;9.058;2023-01-09T09:25:18;4.70;99.90
7411;DHT22;3747;48.628;9.058;2023-01-09T09:27:45;5.00;99.90
7411;DHT22;3747;48.628;9.058;2023-01-09T09:30:14;5.20;99.90
7411;DHT22;3747;48.628;9.058;2023-01-09T09:32:42;5.30;99.90
7411;DHT22;3747;48.628;9.058;2023-01-09T09:35:09;5.30;99.90
7411;DHT22;3747;48.628;9.058;2023-01-09T09:37:36;5.40;99.90
7411;DHT22;3747;48.628;9.058;2023-01-09T09:40:05;5.40;99.90
7411;DHT22;3747;48.628;9.058;2023-01-09T09:42:43;5.50;99.90
7411;DHT22;3747;48.628;9.058;2023-01-09T09:45:37;5.60;99.90
7411;DHT22;3747;48.628;9.058;2023-01-09T09:48:26;5.70;99.90
7411;DHT22;3747;48.628;9.058;2023-01-09T09:51:11;5.90;99.90
7411;DHT22;3747;48.628;9.058;2023-01-09T09:53:45;6.10;99.90
7411;DHT22;3747;48.628;9.058;2023-01-09T09:56:15;6.40;99.90
7411;DHT22;3747;48.628;9.058;2023-01-09T09:58:45;6.40;99.90
7411;DHT22;3747;48.628;9.058;2023-01-09T10:01:17;6.40;99.90
7411;DHT22;3747;48.628;9.058;2023-01-09T10:03:50;6.20;99.90
7411;DHT22;3747;48.628;9.058;2023-01-09T10:06:24;6.10;99.90
7411;DHT22;3747;48.628;9.058;2023-01-09T10:08:57;6.00;99.90
7411;DHT22;3747;48.628;9.058;2023-01-09T10:11:32;6.10;99.90
7411;DHT22;3747;48.628;9.058;2023-01-09T10:14:00;5.90;99.90
7411;DHT22;3747;48.628;9.058;2023-01-09T10:16:41;5.90;99.90
7411;DHT22;3747;48.628;9.058;2023-01-09T10:19:24;6.10;99.90
7411;DHT22;3747;48.628;9.058;2023-01-09T10:21:57;6.10;99.90
7411;DHT22;3747;48.628;9.058;2023-01-09T10:24:42;6.10;99.90
7411;DHT22;3747;48.628;9.058;2023-01-09T10:27:16;6.30;99.90
7411;DHT22;3747;48.628;9.058;2023-01-09T10:30:00;6.30;99.90
7411;DHT22;3747;48.628;9.058;2023-01-09T10:32:43;6.00;99.90
7411;DHT22;3747;48.628;9.058;2023-01-09T10:35:27;5.90;99.90
7411;DHT22;3747;48.628;9.058;2023-01-09T10:37:58;6.00;99.90
7411;DHT22;3747;48.628;9.058;2023-01-09T10:40:29;6.00;99.90
7411;DHT22;3747;48.628;9.058;2023-01-09T10:43:00;6.00;99.90
7411;DHT22;3747;48.628;9.058;2023-01-09T10:45:30;6.00;99.90
7411;DHT22;3747;48.628;9.058;2023-01-09T10:48:00;5.90;99.90
7411;DHT22;3747;48.628;9.058;2023-01-09T10:50:33;6.00;99.90
7411;DHT22;3747;48.628;9.058;2023-01-09T10:53:06;6.10;99.90
7411;DHT22;3747;48.628;9.058;2023-01-09T10:55:40;6.10;99.90
7411;DHT22;3747;48.628;9.058;2023-01-09T10:58:11;6.10;99.90
7411;DHT22;3747;48.628;9.058;2023-01-09T11:00:39;6.10;99.90
7411;DHT22;3747;48.628;9.058;2023-01-09T11:03:10;6.20;99.90
7411;DHT22;3747;48.628;9.058;2023-01-09T11:05:39;6.30;99.90
7411;DHT22;3747;48.628;9.058;2023-01-09T11:08:16;6.20;99.90
7411;DHT22;3747;48.628;9.058;2023-01-09T11:10:47;6.20;99.90
7411;DHT22;3747;48.628;9.058;2023-01-09T11:13:19;6.20;99.90
7411;DHT22;3747;48.628;9.058;2023-01-09T11:16:00;6.20;99.90
7411;DHT22;3747;48.628;9.058;2023-01-09T11:18:29;6.20;99.90
7411;DHT22;3747;48.628;9.058;2023-01-09T11:21:11;6.40;99.90
7411;DHT22;3747;48.628;9.058;2023-01-09T11:23:38;6.50;99.90
7411;DHT22;3747;48.628;9.058;2023-01-09T11:26:08;6.70;99.90
7411;DHT22;3747;48.628;9.058;2023-01-09T11:29:03;6.70;99.90
7411;DHT22;3747;48.628;9.058;2023-01-09T11:31:31;6.50;99.90
7411;DHT22;3747;48.628;9.058;2023-01-09T11:33:58;6.20;99.90
7411;DHT22;3747;48.628;9.058;2023-01-09T11:36:33;6.10;99.90
7411;DHT22;3747;48.628;9.058;2023-01-09T11:39:00;6.00;99.90
7411;DHT22;3747;48.628;9.058;2023-01-09T11:41:29;6.20;99.90
7411;DHT22;3747;48.628;9.058;2023-01-09T11:43:57;6.50;99.90
7411;DHT22;3747;48.628;9.058;2023-01-09T11:46:36;6.60;99.90
7411;DHT22;3747;48.628;9.058;2023-01-09T11:49:18;6.70;99.90
7411;DHT22;3747;48.628;9.058;2023-01-09T11:52:14;6.80;99.90
7411;DHT22;3747;48.628;9.058;2023-01-09T11:54:45;6.90;99.90
7411;DHT22;3747;48.628;9.058;2023-01-09T11:57:13;6.90;99.90
7411;DHT22;3747;48.628;9.058;2023-01-09T11:59:39;6.90;99.90
7411;DHT22;3747;48.628;9.058;2023-01-09T12:02:28;6.70;99.90
7411;DHT22;3747;48.628;9.058;2023-01-09T12:05:00;6.70;99.90
7411;DHT22;3747;48.628;9.058;2023-01-09T12:07:49;6.70;99.90
7411;DHT22;3747;48.628;9.058;2023-01-09T12:10:35;6.90;99.90
7411;DHT22;3747;48.628;9.058;2023-01-09T12:13:17;6.80;99.90
7411;DHT22;3747;48.628;9.058;2023-01-09T12:15:55;6.90;99.90
7411;DHT22;3747;48.628;9.058;2023-01-09T12:18:38;6.90;99.90
7411;DHT22;3747;48.628;9.058;2023-01-09T12:21:16;7.00;99.90
7411;DHT22;3747;48.628;9.058;2023-01-09T12:23:59;7.10;99.90
7411;DHT22;3747;48.628;9.058;2023-01-09T12:26:30;7.00;99.90
7411;DHT22;3747;48.628;9.058;2023-01-09T12:29:16;7.10;99.90
7411;DHT22;3747;48.628;9.058;2023-01-09T12:32:07;7.20;99.90
7411;DHT22;3747;48.628;9.058;2023-01-09T12:35:05;7.40;99.90
7411;DHT22;3747;48.628;9.058;2023-01-09T12:37:52;7.30;99.90
7411;DHT22;3747;48.628;9.058;2023-01-09T12:40:34;7.20;99.90
7411;DHT22;3747;48.628;9.058;2023-01-09T12:43:08;7.10;99.90
7411;DHT22;3747;48.628;9.058;2023-01-09T12:45:48;7.00;99.90
7411;DHT22;3747;48.628;9.058;2023-01-09T12:48:30;6.80;99.90
7411;DHT22;3747;48.628;9.058;2023-01-09T12:51:11;6.80;99.90
7411;DHT22;3747;48.628;9.058;2023-01-09T12:53:46;6.80;99.90
7411;DHT22;3747;48.628;9.058;2023-01-09T12:56:20;6.90;99.90
7411;DHT22;3747;48.628;9.058;2023-01-09T12:58:51;6.80;99.90
7411;DHT22;3747;48.628;9.058;2023-01-09T13:01:22;6.80;99.90
7411;DHT22;3747;48.628;9.058;2023-01-09T13:03:56;6.70;99.90
7411;DHT22;3747;48.628;9.058;2023-01-09T13:06:25;6.70;99.90
7411;DHT22;3747;48.628;9.058;2023-01-09T13:09:07;6.60;99.90
7411;DHT22;3747;48.628;9.058;2023-01-09T13:11:46;6.40;99.90
7411;DHT22;3747;48.628;9.058;2023-01-09T13:14:17;6.20;99.90
7411;DHT22;3747;48.628;9.058;2023-01-09T13:16:48;6.10;99.90
7411;DHT22;3747;48.628;9.058;2023-01-09T13:19:20;6.20;99.90
7411;DHT22;3747;48.628;9.058;2023-01-09T13:21:49;6.10;99.90
7411;DHT22;3747;48.628;9.058;2023-01-09T13:24:18;6.00;99.90
7411;DHT22;3747;48.628;9.058;2023-01-09T13:26:49;5.80;99.90
7411;DHT22;3747;48.628;9.058;2023-01-09T13:29:20;5.60;99.90
7411;DHT22;3747;48.628;9.058;2023-01-09T13:32:12;5.60;99.90
7411;DHT22;3747;48.628;9.058;2023-01-09T13:34:44;5.50;99.90
7411;DHT22;3747;48.628;9.058;2023-01-09T13:37:20;5.40;99.90
7411;DHT22;3747;48.628;9.058;2023-01-09T13:39:55;5.20;99.90
7411;DHT22;3747;48.628;9.058;2023-01-09T13:42:24;5.20;99.90
7411;DHT22;3747;48.628;9.058;2023-01-09T13:45:19;5.20;99.90
7411;DHT22;3747;48.628;9.058;2023-01-09T13:47:49;5.30;99.90
7411;DHT22;3747;48.628;9.058;2023-01-09T13:50:39;5.40;99.90
7411;DHT22;3747;48.628;9.058;2023-01-09T13:56:06;5.40;99.90
7411;DHT22;3747;48.628;9.058;2023-01-09T13:59:01;5.50;99.90
7411;DHT22;3747;48.628;9.058;2023-01-09T14:01:42;5.60;99.90
7411;DHT22;3747;48.628;9.058;2023-01-09T14:04:40;5.60;99.90
7411;DHT22;3747;48.628;9.058;2023-01-09T14:07:25;5.50;99.90
7411;DHT22;3747;48.628;9.058;2023-01-09T14:09:55;5.40;99.90
7411;DHT22;3747;48.628;9.058;2023-01-09T14:12:23;5.40;99.90
7411;DHT22;3747;48.628;9.058;2023-01-09T14:14:54;5.30;99.90
7411;DHT22;3747;48.628;9.058;2023-01-09T14:17:29;5.40;99.90
7411;DHT22;3747;48.628;9.058;2023-01-09T14:19:58;5.50;99.90
7411;DHT22;3747;48.628;9.058;2023-01-09T14:22:28;5.50;99.90
7411;DHT22;3747;48.628;9.058;2023-01-09T14:25:01;5.40;99.90
7411;DHT22;3747;48.628;9.058;2023-01-09T14:27:49;5.30;99.90
7411;DHT22;3747;48.628;9.058;2023-01-09T14:30:28;5.30;99.90
7411;DHT22;3747;48.628;9.058;2023-01-09T14:32:55;5.20;99.90
7411;DHT22;3747;48.628;9.058;2023-01-09T14:35:51;5.20;99.90
7411;DHT22;3747;48.628;9.058;2023-01-09T14:38:26;5.20;99.90
7411;DHT22;3747;48.628;9.058;2023-01-09T14:40:58;5.20;99.90
7411;DHT22;3747;48.628;9.058;2023-01-09T14:43:32;5.20;99.90
7411;DHT22;3747;48.628;9.058;2023-01-09T14:46:11;5.20;99.90
7411;DHT22;3747;48.628;9.058;2023-01-09T14:48:49;5.30;99.90
7411;DHT22;3747;48.628;9.058;2023-01-09T14:51:19;5.30;99.90
7411;DHT22;3747;48.628;9.058;2023-01-09T14:53:49;5.30;99.90
7411;DHT22;3747;48.628;9.058;2023-01-09T14:56:25;5.30;99.90
7411;DHT22;3747;48.628;9.058;2023-01-09T14:59:10;5.30;99.90
7411;DHT22;3747;48.628;9.058;2023-01-09T15:01:39;5.30;99.90
7411;DHT22;3747;48.628;9.058;2023-01-09T15:04:21;5.30;99.90
7411;DHT22;3747;48.628;9.058;2023-01-09T15:06:49;5.30;99.90
7411;DHT22;3747;48.628;9.058;2023-01-09T15:09:22;5.20;99.90
7411;DHT22;3747;48.628;9.058;2023-01-09T15:11:55;5.20;99.90
7411;DHT22;3747;48.628;9.058;2023-01-09T15:14:30;5.10;99.90
7411;DHT22;3747;48.628;9.058;2023-01-09T15:16:59;5.10;99.90
7411;DHT22;3747;48.628;9.058;2023-01-09T15:19:27;4.90;99.90
7411;DHT22;3747;48.628;9.058;2023-01-09T15:21:58;4.70;99.90
7411;DHT22;3747;48.628;9.058;2023-01-09T15:24:28;4.60;99.90
7411;DHT22;3747;48.628;9.058;2023-01-09T15:26:57;4.40;99.90
7411;DHT22;3747;48.628;9.058;2023-01-09T15:29:25;4.40;99.90
7411;DHT22;3747;48.628;9.058;2023-01-09T15:31:56;4.30;99.90
7411;DHT22;3747;48.628;9.058;2023-01-09T15:34:25;4.30;99.90
7411;DHT22;3747;48.628;9.058;2023-01-09T15:36:52;4.20;99.90
7411;DHT22;3747;48.628;9.058;2023-01-09T15:39:23;4.20;99.90
7411;DHT22;3747;48.628;9.058;2023-01-09T15:41:52;4.20;99.90
7411;DHT22;3747;48.628;9.058;2023-01-09T15:44:38;4.10;99.90
7411;DHT22;3747;48.628;9.058;2023-01-09T15:47:06;4.10;99.90
7411;DHT22;3747;48.628;9.058;2023-01-09T15:49:35;4.00;99.90
7411;DHT22;3747;48.628;9.058;2023-01-09T15:52:03;3.90;99.90
7411;DHT22;3747;48.628;9.058;2023-01-09T15:54:32;3.90;99.90
7411;DHT22;3747;48.628;9.058;2023-01-09T15:57:28;3.80;99.90
7411;DHT22;3747;48.628;9.058;2023-01-09T16:00:40;3.70;99.90
7411;DHT22;3747;48.628;9.058;2023-01-09T16:03:20;3.70;99.90
7411;DHT22;3747;48.628;9.058;2023-01-09T16:05:50;3.60;99.90
7411;DHT22;3747;48.628;9.058;2023-01-09T16:08:24;3.60;99.90
7411;DHT22;3747;48.628;9.058;2023-01-09T16:10:56;3.50;99.90
7411;DHT22;3747;48.628;9.058;2023-01-09T16:13:26;3.40;99.90
7411;DHT22;3747;48.628;9.058;2023-01-09T16:15:56;3.40;99.90
7411;DHT22;3747;48.628;9.058;2023-01-09T16:18:30;3.40;99.90
7411;DHT22;3747;48.628;9.058;2023-01-09T16:21:04;3.50;99.90
7411;DHT22;3747;48.628;9.058;2023-01-09T16:23:32;3.60;99.90
7411;DHT22;3747;48.628;9.058;2023-01-09T16:26:05;3.70;99.90
7411;DHT22;3747;48.628;9.058;2023-01-09T16:28:32;3.80;99.90
7411;DHT22;3747;48.628;9.058;2023-01-09T16:31:02;3.80;99.90
7411;DHT22;3747;48.628;9.058;2023-01-09T16:33:33;3.70;99.90
7411;DHT22;3747;48.628;9.058;2023-01-09T16:36:00;3.60;99.90
7411;DHT22;3747;48.628;9.058;2023-01-09T16:38:27;3.50;99.90
7411;DHT22;3747;48.628;9.058;2023-01-09T16:41:02;3.40;99.90
7411;DHT22;3747;48.628;9.058;2023-01-09T16:43:46;3.40;99.90
7411;DHT22;3747;48.628;9.058;2023-01-09T16:46:15;3.30;99.90